Detall de PIREP

Printer-friendly versionPDF version

[2010/12/15 09:21:00]
Flight IATA:CT3232
Pilot Number:011
Company ICAO:CAT
Aircraft Type:F28/A
PAX:85
Departing Airport: LEPA
Destination Airport: LEMD
Alternate Airport:LEMG
Online: VATSIM
Route:ADX UN850 VOLTO UN733 CJN
Flight Level:FL310
No Slew and time accel
No pause
Crash detect
Detect pilot in Cockpit between each 30 and 45 minutes
09:21 Zero fuel Weight: 60237 Lbs, Fuel Weight: 9142 Lbs
09:21 VATSIM:LEPA 150900Z 05016KT 9999 FEW020 SCT045 06/01 Q1021 NOSIG
09:21 VATSIM:LEMD 150900Z 01014G24KT 340V040 CAVOK 04/M05 Q1026 NOSIG
09:33 Parking Brakes off
09:45 Take-off
09:45 Take off Weight: 68791 Lbs
09:45 Wind: 032º @ 019 Knots Heading: 239º
09:45 POS N39º 33´ 10´´ E002º 43´ 22´´
09:45 Gear Up: 175 Knots
10:00 Wind:357º@056 Knots Heading: 281º Ground Speed: 391 Knots Altitude 28054 ft
10:01 TOC
10:01 Fuel Weight: 6434 Lb
10:15 Wind:339º@068 Knots Heading: 307º Ground Speed: 384 Knots Altitude 31351 ft
10:18 TOD
10:18 Fuel Weight: 5309 Lb
10:30 Wind:000º@038 Knots Heading: 301º Ground Speed: 284 Knots Altitude 15446 ft
10:45 Wind:012º@036 Knots Heading: 269º Ground Speed: 268 Knots Altitude 10009 ft
10:49 Flaps:1 at 250 Knots
10:49 Flaps:2 at 227 Knots
10:52 Flaps:3 at 194 Knots
10:52 Gear Down: 193 Knots
10:55 Flaps:4 at 177 Knots
10:55 Flaps:5 at 176 Knots
10:56 TouchDown:Rate -266 ft/min Speed: 112 Knots
10:56 VATSIM:LEMD 151000Z 01015G25KT 340V040 9999 FEW050 05/M06 Q1026 WS ALL RWY NOSIG
10:56 Land
10:56 Wind:001º@016 Knots
10:56 Heading: 180º
10:56 Flight Duration: 01:11
10:56 Landing Weight: 63644 Lbs
10:56 POS N40º 30´ 22´´ W003º 34´ 28´´
10:59 Parking brakes on
10:59 Block to Block Duration: 01:26
10:59 Final Fuel: 3295 Lbls
10:59 Spent Fuel: 5846 Lbls
10:59 Flight Length: 124 NM
10:59 TOD Land Length: 64 NM

Exportar CSV

Powered by Drupal - Modified by Danger4k